Time;durP1;ratioP1;P1;durP2;ratioP2;P2;SDS_P1;SDS_P2;PMS_P1;PMS_P2;Temp;Humidity;BMP_temperature;BMP_pressure;BME280_temperature;BME280_humidity;BME280_pressure;Samples;Min_cycle;Max_cycle;Signal;HPM_P1;HPM_P2
2021/05/26 00:00:55;;;;;;;12.55;5.43;;;10.30;99.90;;;;;;5025387;23;20058;-78
2021/05/26 00:03:21;;;;;;;8.25;5.22;;;10.30;99.90;;;;;;5027251;28;20076;-80
2021/05/26 00:05:48;;;;;;;9.15;5.40;;;10.30;99.90;;;;;;5017158;28;20054;-80
2021/05/26 00:08:16;;;;;;;10.85;5.40;;;10.30;99.90;;;;;;5016854;28;20137;-81
2021/05/26 00:10:42;;;;;;;12.65;6.03;;;10.30;99.90;;;;;;5015587;28;20140;-79
2021/05/26 00:13:09;;;;;;;13.00;6.45;;;10.30;99.90;;;;;;5013524;28;20426;-79
2021/05/26 00:15:36;;;;;;;12.25;6.25;;;10.30;99.90;;;;;;5013721;28;20417;-79
2021/05/26 00:18:02;;;;;;;10.80;6.18;;;10.30;99.90;;;;;;5014042;28;20132;-79
2021/05/26 00:20:28;;;;;;;8.75;5.82;;;10.30;99.90;;;;;;5014722;28;20105;-79
2021/05/26 00:22:55;;;;;;;11.10;6.25;;;10.30;99.90;;;;;;5014281;28;20059;-77
2021/05/26 00:25:21;;;;;;;13.75;6.38;;;10.30;99.90;;;;;;5012933;28;20046;-78
2021/05/26 00:27:52;;;;;;;14.57;6.60;;;10.30;99.90;;;;;;5013611;28;20587;-80
2021/05/26 00:30:20;;;;;;;10.77;6.60;;;10.30;99.90;;;;;;5015059;28;20057;-79
2021/05/26 00:32:47;;;;;;;11.32;6.05;;;10.30;99.90;;;;;;5019153;28;20073;-79
2021/05/26 00:35:13;;;;;;;10.48;5.38;;;10.30;99.90;;;;;;5021776;28;20108;-79
2021/05/26 00:37:40;;;;;;;11.55;6.00;;;10.30;99.90;;;;;;5021156;28;20065;-80
2021/05/26 00:40:07;;;;;;;12.55;5.65;;;10.30;99.90;;;;;;5016682;28;20140;-80
2021/05/26 00:42:34;;;;;;;9.43;5.63;;;10.30;99.90;;;;;;5017007;28;20057;-80
2021/05/26 00:45:00;;;;;;;12.23;5.97;;;10.40;99.90;;;;;;5019245;28;20106;-79
2021/05/26 00:47:41;;;;;;;11.48;5.55;;;10.40;99.90;;;;;;5019998;28;20046;-80
2021/05/26 00:50:11;;;;;;;12.50;5.63;;;10.30;99.90;;;;;;5013218;28;20069;-79
2021/05/26 00:52:37;;;;;;;15.73;5.38;;;10.30;99.90;;;;;;5013707;28;20046;-79
2021/05/26 00:55:05;;;;;;;13.77;5.38;;;10.30;99.90;;;;;;5013127;28;20208;-78
2021/05/26 00:57:32;;;;;;;15.15;5.93;;;10.30;99.90;;;;;;5013836;28;20101;-81
2021/05/26 00:59:59;;;;;;;12.75;5.60;;;10.30;99.90;;;;;;5013162;28;20077;-79
2021/05/26 01:02:25;;;;;;;8.30;5.47;;;10.30;99.90;;;;;;5011569;28;20478;-79
2021/05/26 01:04:52;;;;;;;13.68;5.38;;;10.40;99.90;;;;;;5012183;28;20088;-79
2021/05/26 01:07:19;;;;;;;12.65;5.50;;;10.30;99.90;;;;;;5011932;28;20105;-79
2021/05/26 01:09:45;;;;;;;9.68;5.30;;;10.30;99.90;;;;;;5012898;28;20089;-79
2021/05/26 01:12:12;;;;;;;12.52;5.72;;;10.30;99.90;;;;;;5012452;28;20152;-79
2021/05/26 01:14:38;;;;;;;12.05;5.55;;;10.30;99.90;;;;;;5011407;28;20128;-80
2021/05/26 01:17:05;;;;;;;11.20;5.20;;;10.30;99.90;;;;;;5011416;28;20081;-79
2021/05/26 01:19:32;;;;;;;12.45;5.38;;;10.40;99.90;;;;;;5011696;28;20459;-80
2021/05/26 01:21:59;;;;;;;14.93;5.43;;;10.40;99.90;;;;;;5015144;28;20133;-79
2021/05/26 01:24:26;;;;;;;15.15;6.15;;;10.30;99.90;;;;;;5018133;28;20133;-81
2021/05/26 01:26:52;;;;;;;10.13;4.97;;;10.40;99.90;;;;;;5018494;28;20070;-80
2021/05/26 01:29:19;;;;;;;12.60;5.80;;;10.40;99.90;;;;;;5020029;28;20057;-81
2021/05/26 01:31:45;;;;;;;14.13;5.32;;;10.50;99.90;;;;;;5020354;28;20077;-80
2021/05/26 01:34:12;;;;;;;14.25;5.47;;;10.40;99.90;;;;;;5019607;28;20136;-81
2021/05/26 01:36:41;;;;;;;12.63;5.28;;;10.40;99.90;;;;;;5021028;28;20053;-81
2021/05/26 01:39:09;;;;;;;9.60;5.28;;;10.40;99.90;;;;;;5013913;28;20118;-80
2021/05/26 01:41:36;;;;;;;14.02;5.57;;;10.40;99.90;;;;;;5011714;28;20132;-79
2021/05/26 01:44:03;;;;;;;14.02;5.63;;;10.40;99.90;;;;;;5012078;28;20129;-79
2021/05/26 01:46:29;;;;;;;11.65;5.53;;;10.40;99.90;;;;;;5012054;28;20053;-79
2021/05/26 01:48:55;;;;;;;15.18;6.00;;;10.40;99.90;;;;;;5011897;28;20532;-79
2021/05/26 01:51:22;;;;;;;17.65;6.47;;;10.40;99.90;;;;;;5011521;28;20441;-79
2021/05/26 01:53:51;;;;;;;10.95;5.70;;;10.40;99.90;;;;;;5011647;28;20081;-79
2021/05/26 01:56:20;;;;;;;11.60;5.43;;;10.50;99.90;;;;;;5012703;28;20141;-80
2021/05/26 01:58:49;;;;;;;15.40;5.82;;;10.40;99.90;;;;;;5013222;28;20132;-79
2021/05/26 02:01:17;;;;;;;12.90;5.80;;;10.40;99.90;;;;;;5013736;28;20465;-80
2021/05/26 02:03:44;;;;;;;15.00;5.72;;;10.40;99.90;;;;;;5013372;28;20403;-80
2021/05/26 02:06:12;;;;;;;14.00;6.00;;;10.40;99.90;;;;;;5016077;28;20081;-81
2021/05/26 02:08:38;;;;;;;16.02;6.55;;;10.40;99.90;;;;;;5016770;28;20046;-80
2021/05/26 02:13:50;;;;;;;13.63;5.53;;;10.40;99.90;;;;;;5014765;28;20052;-80
2021/05/26 02:16:17;;;;;;;13.95;5.53;;;10.40;99.90;;;;;;5015410;28;20085;-81
2021/05/26 02:18:43;;;;;;;11.10;6.13;;;10.40;99.90;;;;;;5020069;28;20136;-81
2021/05/26 02:21:09;;;;;;;15.18;5.30;;;10.40;99.90;;;;;;5019626;28;20141;-78
2021/05/26 02:23:36;;;;;;;18.27;6.72;;;10.40;99.90;;;;;;5016194;28;20050;-80
2021/05/26 02:26:02;;;;;;;13.75;6.80;;;10.40;99.90;;;;;;5016682;28;20088;-80
2021/05/26 02:28:29;;;;;;;17.13;6.45;;;10.40;99.90;;;;;;5015489;28;20129;-79
2021/05/26 02:30:56;;;;;;;15.40;6.15;;;10.40;99.90;;;;;;5016980;28;20061;-80
2021/05/26 02:33:23;;;;;;;16.77;5.25;;;10.40;99.90;;;;;;5017334;28;20104;-80
2021/05/26 02:35:49;;;;;;;10.93;5.70;;;10.40;99.90;;;;;;5017416;28;20057;-80
2021/05/26 02:38:16;;;;;;;13.90;5.93;;;10.40;99.90;;;;;;5018468;28;20133;-80
2021/05/26 02:40:44;;;;;;;17.30;5.78;;;10.40;99.90;;;;;;5017399;28;20128;-80
2021/05/26 02:43:10;;;;;;;12.23;5.38;;;10.30;99.90;;;;;;5015348;28;20112;-79
2021/05/26 02:45:37;;;;;;;12.10;6.22;;;10.30;99.90;;;;;;5014932;28;20141;-79
2021/05/26 02:48:06;;;;;;;10.43;5.20;;;10.40;99.90;;;;;;5014525;28;20056;-79
2021/05/26 02:50:32;;;;;;;8.75;5.90;;;10.40;99.90;;;;;;5014583;28;20050;-82
2021/05/26 02:52:59;;;;;;;11.63;5.30;;;10.30;99.90;;;;;;5020059;28;20157;-81
2021/05/26 02:55:26;;;;;;;12.25;5.25;;;10.30;99.90;;;;;;5019424;28;20078;-81
2021/05/26 02:57:53;;;;;;;15.40;5.45;;;10.30;99.90;;;;;;5019953;28;20050;-82
2021/05/26 03:00:22;;;;;;;14.82;5.78;;;10.30;99.90;;;;;;5019103;28;20053;-81
2021/05/26 03:02:49;;;;;;;10.95;5.45;;;10.30;99.90;;;;;;5019542;28;20121;-80
2021/05/26 03:05:17;;;;;;;9.77;5.05;;;10.30;99.90;;;;;;5020939;28;20141;-81
2021/05/26 03:07:44;;;;;;;11.10;5.30;;;10.20;99.90;;;;;;5019733;28;20137;-81
2021/05/26 03:10:12;;;;;;;10.45;4.97;;;10.20;99.90;;;;;;5020299;28;20105;-81
2021/05/26 03:12:39;;;;;;;12.90;5.38;;;10.30;99.90;;;;;;5019568;28;20053;-81
2021/05/26 03:15:07;;;;;;;12.65;5.65;;;10.30;99.90;;;;;;5019472;28;20057;-81
2021/05/26 03:17:33;;;;;;;12.02;5.53;;;10.30;99.90;;;;;;5019300;28;20107;-81
2021/05/26 03:20:00;;;;;;;10.95;5.40;;;10.20;99.90;;;;;;5018524;28;20137;-82
2021/05/26 03:22:27;;;;;;;10.57;5.78;;;10.20;99.90;;;;;;5019220;28;20137;-80
2021/05/26 03:24:54;;;;;;;14.55;5.30;;;10.20;99.90;;;;;;5019332;28;20430;-80
2021/05/26 03:27:21;;;;;;;10.55;5.25;;;10.20;99.90;;;;;;5018388;28;20042;-80
2021/05/26 03:29:48;;;;;;;9.43;5.10;;;10.20;99.90;;;;;;5018474;28;20060;-81
2021/05/26 03:32:14;;;;;;;13.10;5.13;;;10.20;99.90;;;;;;5019613;28;20481;-81
2021/05/26 03:34:41;;;;;;;9.18;5.22;;;10.10;99.90;;;;;;5019580;28;20085;-82
2021/05/26 03:37:07;;;;;;;11.00;5.15;;;10.10;99.90;;;;;;5017905;28;20188;-80
2021/05/26 03:39:34;;;;;;;10.50;5.07;;;10.20;99.90;;;;;;5017735;28;20049;-81
2021/05/26 03:42:01;;;;;;;10.57;5.35;;;10.20;99.90;;;;;;5017860;28;20532;-80
2021/05/26 03:44:27;;;;;;;8.25;5.20;;;10.20;99.90;;;;;;5018534;28;20061;-82
2021/05/26 03:46:53;;;;;;;13.90;5.78;;;10.20;99.90;;;;;;5017895;28;20087;-80
2021/05/26 03:49:20;;;;;;;10.52;5.95;;;10.20;99.90;;;;;;5018461;28;20117;-80
2021/05/26 03:51:46;;;;;;;16.15;5.90;;;10.20;99.90;;;;;;5016921;28;20525;-80
2021/05/26 03:54:12;;;;;;;9.57;5.07;;;10.10;99.90;;;;;;5016892;28;20460;-80
2021/05/26 03:56:41;;;;;;;9.80;5.28;;;10.00;99.90;;;;;;5014796;28;20129;-79
2021/05/26 03:59:08;;;;;;;10.98;5.50;;;10.10;99.90;;;;;;5015289;28;20054;-80
2021/05/26 04:01:35;;;;;;;7.53;5.13;;;10.10;99.90;;;;;;5014394;28;20046;-79
2021/05/26 04:04:10;;;;;;;8.60;4.72;;;10.20;99.90;;;;;;5012958;28;20133;-79
2021/05/26 04:06:36;;;;;;;9.38;5.10;;;10.20;99.90;;;;;;5013267;28;20099;-80
2021/05/26 04:09:04;;;;;;;10.32;4.88;;;10.10;99.90;;;;;;5012751;28;20137;-79
2021/05/26 04:11:31;;;;;;;11.98;5.30;;;10.00;99.90;;;;;;5012817;28;20169;-80
2021/05/26 04:13:58;;;;;;;12.55;5.15;;;10.10;99.90;;;;;;5013027;28;20084;-79
2021/05/26 04:16:25;;;;;;;9.68;5.15;;;10.00;99.90;;;;;;5012721;28;20085;-79
2021/05/26 04:18:51;;;;;;;13.05;5.65;;;10.10;99.90;;;;;;5018259;28;20517;-80
2021/05/26 04:21:20;;;;;;;10.50;5.18;;;10.10;99.90;;;;;;5020443;28;20148;-78
2021/05/26 04:23:46;;;;;;;9.60;4.95;;;10.10;99.90;;;;;;5019843;28;20136;-79
2021/05/26 04:26:13;;;;;;;10.05;5.28;;;10.00;99.90;;;;;;5014186;28;20054;-79
2021/05/26 04:28:43;;;;;;;7.53;5.03;;;10.10;99.90;;;;;;5013333;28;20100;-79
2021/05/26 04:31:11;;;;;;;11.60;4.90;;;10.10;99.90;;;;;;5012938;28;20089;-79
2021/05/26 04:33:37;;;;;;;9.52;5.13;;;10.20;99.90;;;;;;5013039;28;20585;-79
2021/05/26 04:36:04;;;;;;;11.95;4.72;;;10.20;99.90;;;;;;5012947;28;20093;-80
2021/05/26 04:38:30;;;;;;;8.07;4.60;;;10.20;99.90;;;;;;5015572;28;20180;-81
2021/05/26 04:40:57;;;;;;;6.95;4.22;;;10.20;99.90;;;;;;5015172;28;20093;-80
2021/05/26 04:43:23;;;;;;;8.10;4.30;;;10.20;99.90;;;;;;5014845;28;20085;-79
2021/05/26 04:45:50;;;;;;;9.63;4.57;;;10.10;99.90;;;;;;5014934;28;20454;-80
2021/05/26 04:48:17;;;;;;;8.88;4.72;;;10.20;99.90;;;;;;5014538;28;20057;-80
2021/05/26 04:50:43;;;;;;;8.32;4.75;;;10.30;99.90;;;;;;5013523;28;20192;-79
2021/05/26 04:53:10;;;;;;;5.88;4.45;;;10.30;99.90;;;;;;5012782;28;20136;-79
2021/05/26 04:55:36;;;;;;;11.63;4.80;;;10.40;99.90;;;;;;5012828;28;20053;-79
2021/05/26 04:58:06;;;;;;;10.50;5.50;;;10.60;99.90;;;;;;5012801;28;20187;-79
2021/05/26 05:00:33;;;;;;;8.38;4.57;;;10.70;99.90;;;;;;5012821;28;20142;-79
2021/05/26 05:02:59;;;;;;;7.70;4.70;;;10.90;99.90;;;;;;5012334;28;20076;-78
2021/05/26 05:05:31;;;;;;;6.60;4.30;;;11.00;99.90;;;;;;5012085;28;20049;-78
2021/05/26 05:07:57;;;;;;;6.00;3.67;;;11.20;99.90;;;;;;5011812;28;20050;-78
2021/05/26 05:10:24;;;;;;;8.73;4.15;;;11.40;99.90;;;;;;5011842;28;20371;-79
2021/05/26 05:12:50;;;;;;;6.82;3.83;;;11.60;99.90;;;;;;5011902;28;20572;-79
2021/05/26 05:15:17;;;;;;;6.20;3.30;;;11.90;99.90;;;;;;5012221;28;20260;-79
2021/05/26 05:17:46;;;;;;;6.80;3.30;;;12.20;99.90;;;;;;5013192;28;20081;-80
2021/05/26 05:20:14;;;;;;;7.22;3.10;;;12.60;99.90;;;;;;5013871;28;20061;-78
2021/05/26 05:22:42;;;;;;;4.03;2.70;;;12.90;99.90;;;;;;5011447;28;20489;-78
2021/05/26 05:25:10;;;;;;;4.47;2.67;;;13.10;99.90;;;;;;5011676;28;20133;-79
2021/05/26 05:27:36;;;;;;;4.00;2.80;;;13.20;99.90;;;;;;5011550;28;20050;-79
2021/05/26 05:30:04;;;;;;;4.35;2.60;;;13.20;99.90;;;;;;5011791;28;20050;-79
2021/05/26 05:32:30;;;;;;;2.70;2.45;;;13.30;99.90;;;;;;5018279;28;20495;-80
2021/05/26 05:34:57;;;;;;;4.40;2.75;;;13.40;99.90;;;;;;5013106;28;20054;-79
2021/05/26 05:37:23;;;;;;;7.63;3.35;;;13.60;99.90;;;;;;5012004;28;20052;-75
2021/05/26 05:39:51;;;;;;;5.88;2.67;;;13.70;99.90;;;;;;5011959;28;20139;-79
2021/05/26 05:42:17;;;;;;;5.47;2.90;;;14.00;99.90;;;;;;5012218;28;20137;-79
2021/05/26 05:44:44;;;;;;;4.35;2.70;;;14.40;99.90;;;;;;5011658;28;20057;-78
2021/05/26 05:47:10;;;;;;;4.90;3.00;;;14.70;99.90;;;;;;5011864;28;20053;-79
2021/05/26 05:49:36;;;;;;;3.88;2.72;;;14.80;99.90;;;;;;5011854;28;20108;-79
2021/05/26 05:52:04;;;;;;;6.13;2.45;;;15.10;99.90;;;;;;5012851;28;20108;-80
2021/05/26 05:54:30;;;;;;;2.55;2.22;;;15.40;99.90;;;;;;5007204;28;20057;-78
2021/05/26 05:56:57;;;;;;;3.85;2.65;;;15.90;99.90;;;;;;5007825;28;20418;-79
2021/05/26 05:59:24;;;;;;;3.40;2.33;;;16.20;99.90;;;;;;5005613;28;20061;-78
2021/05/26 06:01:50;;;;;;;3.85;2.72;;;16.60;99.90;;;;;;5006809;28;20506;-77
2021/05/26 06:04:16;;;;;;;2.35;2.13;;;16.60;99.90;;;;;;5004612;28;20132;-78
2021/05/26 06:06:43;;;;;;;3.15;1.95;;;16.40;99.90;;;;;;5000344;28;20162;-78
2021/05/26 06:09:09;;;;;;;3.10;2.30;;;16.10;99.90;;;;;;4995999;28;20141;-79
2021/05/26 06:11:35;;;;;;;4.72;2.40;;;15.70;99.90;;;;;;5010197;28;20129;-79
2021/05/26 06:14:05;;;;;;;3.67;2.80;;;15.40;99.90;;;;;;5008086;28;20140;-80
2021/05/26 06:16:33;;;;;;;2.55;1.90;;;15.20;99.90;;;;;;5004029;28;20345;-79
2021/05/26 06:18:59;;;;;;;4.25;2.20;;;14.90;99.90;;;;;;4997727;28;20047;-78
2021/05/26 06:21:26;;;;;;;4.40;2.40;;;14.70;99.90;;;;;;5009494;28;20148;-78
2021/05/26 06:23:52;;;;;;;3.53;2.35;;;14.50;99.90;;;;;;4998368;28;20133;-78
2021/05/26 06:26:19;;;;;;;3.45;2.63;;;14.20;99.90;;;;;;5009812;28;20561;-79
2021/05/26 06:28:46;;;;;;;2.88;2.45;;;13.80;99.90;;;;;;4995697;28;20050;-78
2021/05/26 06:31:14;;;;;;;3.05;2.20;;;13.70;99.90;;;;;;4995660;28;20172;-78
2021/05/26 06:33:42;;;;;;;2.35;2.10;;;13.40;99.90;;;;;;5011097;28;20068;-78
2021/05/26 06:36:09;;;;;;;5.15;2.33;;;13.20;99.90;;;;;;5011057;28;20046;-77
2021/05/26 06:38:35;;;;;;;3.17;2.10;;;13.10;99.90;;;;;;5001366;28;20125;-78
2021/05/26 06:41:02;;;;;;;3.70;2.20;;;13.00;99.90;;;;;;4994608;28;20192;-78
2021/05/26 06:43:28;;;;;;;2.60;2.10;;;12.90;99.90;;;;;;4994666;28;20137;-78
2021/05/26 06:45:55;;;;;;;2.30;2.03;;;12.90;99.90;;;;;;4995588;28;20141;-79
2021/05/26 06:48:22;;;;;;;5.45;2.25;;;12.80;99.90;;;;;;4995354;28;20133;-79
2021/05/26 06:50:49;;;;;;;2.78;2.38;;;12.90;99.90;;;;;;4995677;28;20145;-79
2021/05/26 06:53:15;;;;;;;5.13;3.15;;;12.90;99.90;;;;;;4995029;28;20046;-78
2021/05/26 06:55:42;;;;;;;5.82;4.43;;;12.80;99.90;;;;;;4994961;28;20137;-79
2021/05/26 06:58:08;;;;;;;4.57;2.40;;;12.80;99.90;;;;;;4994742;28;20046;-78
2021/05/26 07:00:35;;;;;;;3.42;2.40;;;12.90;99.90;;;;;;4995344;28;20177;-79
2021/05/26 07:03:01;;;;;;;6.35;2.33;;;12.90;99.90;;;;;;4995654;28;20050;-77
2021/05/26 07:05:28;;;;;;;5.60;2.35;;;12.90;99.90;;;;;;4997184;28;20059;-80
2021/05/26 07:07:55;;;;;;;2.05;1.60;;;12.90;99.90;;;;;;4997980;28;20077;-80
2021/05/26 07:10:21;;;;;;;2.92;2.10;;;13.00;99.90;;;;;;4996966;28;20502;-80
2021/05/26 07:12:50;;;;;;;3.45;2.80;;;13.00;99.90;;;;;;4995973;28;20138;-80
2021/05/26 07:15:17;;;;;;;2.38;2.00;;;13.10;99.90;;;;;;4995765;28;20049;-79
2021/05/26 07:17:44;;;;;;;2.17;1.85;;;13.40;99.90;;;;;;4996987;28;20129;-79
2021/05/26 07:20:12;;;;;;;3.28;2.70;;;13.50;99.90;;;;;;4998943;28;20085;-80
2021/05/26 07:22:39;;;;;;;1.90;1.73;;;13.50;99.90;;;;;;4999073;28;20483;-80
2021/05/26 07:25:06;;;;;;;4.50;2.67;;;13.50;99.90;;;;;;4998078;28;20128;-79
2021/05/26 07:27:32;;;;;;;4.57;3.22;;;13.40;99.90;;;;;;4995415;28;20130;-79
2021/05/26 07:29:59;;;;;;;4.85;3.65;;;13.60;99.90;;;;;;4995811;28;20421;-79
2021/05/26 07:32:25;;;;;;;5.78;4.85;;;13.80;99.90;;;;;;4995473;28;20498;-79
2021/05/26 07:34:51;;;;;;;2.80;2.13;;;13.90;99.90;;;;;;4995702;28;20172;-79
2021/05/26 07:37:18;;;;;;;8.38;4.30;;;14.20;99.90;;;;;;4995983;28;20129;-79
2021/05/26 07:39:46;;;;;;;3.22;2.20;;;14.40;99.90;;;;;;4995241;28;20482;-79
2021/05/26 07:42:14;;;;;;;3.10;1.63;;;14.60;99.90;;;;;;4995752;28;20082;-79
2021/05/26 07:44:41;;;;;;;2.17;1.00;;;14.80;99.90;;;;;;4996152;28;20395;-79
2021/05/26 07:47:07;;;;;;;3.75;1.60;;;14.80;99.90;;;;;;4995164;28;20149;-79
2021/05/26 07:49:34;;;;;;;4.10;1.42;;;14.80;99.90;;;;;;4995747;28;20054;-79
2021/05/26 07:52:09;;;;;;;2.25;1.48;;;14.70;99.90;;;;;;4995144;28;20181;-79
2021/05/26 07:54:36;;;;;;;2.28;1.60;;;14.60;99.90;;;;;;4995534;28;20132;-78
2021/05/26 07:57:05;;;;;;;2.33;1.60;;;14.50;99.90;;;;;;4995533;28;20061;-79
2021/05/26 07:59:31;;;;;;;2.22;1.55;;;14.70;99.90;;;;;;4995394;28;20522;-79
2021/05/26 08:02:17;;;;;;;5.88;2.20;;;14.90;99.90;;;;;;5038890;23;20049;-79
2021/05/26 08:04:52;;;;;;;4.20;2.38;;;15.40;99.90;;;;;;5015962;28;20133;-78
2021/05/26 08:07:21;;;;;;;3.42;2.22;;;15.80;99.90;;;;;;5015850;28;20049;-78
2021/05/26 08:09:48;;;;;;;3.38;1.73;;;16.20;99.90;;;;;;5006949;28;20498;-80
2021/05/26 08:12:30;;;;;;;3.38;1.67;;;16.60;99.90;;;;;;5018299;28;20076;-80
2021/05/26 08:17:34;;;;;;;3.13;2.05;;;16.40;99.90;;;;;;5013930;28;20061;-77
2021/05/26 08:20:01;;;;;;;2.70;2.00;;;16.30;99.90;;;;;;5015403;28;20137;-79
2021/05/26 08:22:29;;;;;;;2.63;2.15;;;16.20;99.90;;;;;;5016634;28;20068;-79
2021/05/26 08:24:56;;;;;;;2.30;1.88;;;16.20;99.90;;;;;;5034875;28;20050;-80
2021/05/26 08:27:23;;;;;;;4.78;2.05;;;16.10;99.90;;;;;;5034714;28;20053;-80
2021/05/26 08:29:49;;;;;;;7.47;2.53;;;16.00;99.90;;;;;;5035025;28;20057;-78
2021/05/26 08:32:16;;;;;;;4.05;1.92;;;15.80;99.90;;;;;;5032210;28;20230;-80
2021/05/26 08:34:42;;;;;;;3.30;1.90;;;15.60;99.90;;;;;;5027097;28;20050;-78
2021/05/26 08:37:09;;;;;;;3.63;1.92;;;15.50;99.90;;;;;;5019189;28;20053;-78
2021/05/26 08:39:36;;;;;;;3.78;1.92;;;15.30;99.90;;;;;;5015419;28;20194;-78
2021/05/26 08:42:03;;;;;;;3.13;1.73;;;15.10;99.90;;;;;;5016313;28;20522;-79
2021/05/26 08:44:30;;;;;;;1.77;1.45;;;14.90;99.90;;;;;;5013901;28;20129;-78
2021/05/26 08:46:57;;;;;;;2.72;1.88;;;14.70;99.90;;;;;;5013589;28;20054;-78
2021/05/26 08:49:24;;;;;;;2.22;1.75;;;14.60;99.90;;;;;;5012651;28;20473;-78
2021/05/26 08:51:50;;;;;;;2.58;1.60;;;14.60;99.90;;;;;;5013667;28;20178;-78
2021/05/26 08:54:17;;;;;;;5.00;2.10;;;14.50;99.90;;;;;;5012801;28;20137;-78
2021/05/26 08:56:45;;;;;;;2.97;2.10;;;14.40;99.90;;;;;;5013771;28;20084;-78
2021/05/26 08:59:14;;;;;;;2.63;1.63;;;14.40;99.90;;;;;;5012772;28;20468;-78
2021/05/26 09:01:47;;;;;;;4.70;1.88;;;14.40;99.90;;;;;;5013675;28;20141;-79
2021/05/26 09:04:29;;;;;;;2.92;2.17;;;14.40;99.90;;;;;;5012493;28;20455;-78
2021/05/26 09:07:13;;;;;;;2.25;1.63;;;14.50;99.90;;;;;;5013124;28;20132;-78
2021/05/26 09:09:52;;;;;;;3.63;1.83;;;14.70;99.90;;;;;;5012769;28;20061;-78
2021/05/26 09:12:25;;;;;;;2.13;1.92;;;14.60;99.90;;;;;;5013577;28;20744;-77
2021/05/26 09:14:52;;;;;;;2.08;1.88;;;14.70;99.90;;;;;;5013796;28;20473;-80
2021/05/26 09:17:22;;;;;;;2.83;2.17;;;14.70;99.90;;;;;;5010821;28;20050;-79
2021/05/26 09:19:49;;;;;;;5.50;1.77;;;15.00;99.90;;;;;;4998453;28;20149;-80
2021/05/26 09:22:18;;;;;;;4.20;2.20;;;15.30;99.90;;;;;;4997698;28;20089;-79
2021/05/26 09:24:44;;;;;;;2.95;1.95;;;15.70;99.90;;;;;;4995492;28;20060;-77
2021/05/26 09:27:12;;;;;;;3.83;2.03;;;16.10;99.90;;;;;;4997978;28;20058;-80
2021/05/26 09:29:41;;;;;;;3.67;2.20;;;16.20;99.90;;;;;;5000801;28;20136;-79
2021/05/26 09:32:16;;;;;;;3.10;2.40;;;16.30;99.90;;;;;;5000040;28;20486;-79
2021/05/26 09:34:46;;;;;;;5.25;2.20;;;16.30;99.90;;;;;;5000779;28;20088;-79
2021/05/26 09:37:14;;;;;;;2.28;1.58;;;16.20;99.90;;;;;;5000770;28;20060;-79
2021/05/26 09:39:51;;;;;;;2.85;1.92;;;16.10;99.90;;;;;;5000109;28;20522;-81
2021/05/26 09:42:35;;;;;;;1.88;1.67;;;15.80;99.90;;;;;;5000631;28;20707;-80
2021/05/26 09:45:16;;;;;;;3.28;1.67;;;15.40;99.90;;;;;;4999720;28;20495;-80
2021/05/26 09:47:47;;;;;;;3.30;2.10;;;15.30;99.90;;;;;;5001981;28;20054;-79
2021/05/26 09:50:21;;;;;;;2.55;1.40;;;15.00;99.90;;;;;;5001868;28;20054;-81
2021/05/26 09:52:58;;;;;;;2.08;1.50;;;15.00;99.90;;;;;;5002476;28;20120;-80
2021/05/26 09:55:28;;;;;;;1.60;1.50;;;14.80;99.90;;;;;;5000924;28;20054;-79
2021/05/26 09:57:54;;;;;;;2.03;1.55;;;14.70;99.90;;;;;;4999572;28;20057;-80
2021/05/26 10:00:28;;;;;;;2.58;1.80;;;14.60;99.90;;;;;;5000950;28;20046;-79
2021/05/26 10:02:55;;;;;;;2.42;1.73;;;14.60;99.90;;;;;;5000555;28;20543;-79
2021/05/26 10:05:24;;;;;;;1.65;1.50;;;14.50;99.90;;;;;;4999874;28;20133;-79
2021/05/26 10:07:52;;;;;;;2.28;1.63;;;14.70;99.90;;;;;;4999254;28;20054;-78
2021/05/26 10:10:20;;;;;;;1.85;1.75;;;14.70;99.90;;;;;;4998041;28;20192;-79
2021/05/26 10:12:59;;;;;;;3.28;2.03;;;14.60;99.90;;;;;;4997245;28;20050;-79
2021/05/26 10:15:27;;;;;;;2.20;2.00;;;14.60;99.90;;;;;;4997464;28;20062;-78
2021/05/26 10:17:55;;;;;;;2.97;1.98;;;14.80;99.90;;;;;;4997285;28;20129;-78
2021/05/26 10:20:25;;;;;;;2.45;2.25;;;14.90;99.90;;;;;;4995891;28;20050;-77
2021/05/26 10:22:55;;;;;;;2.88;1.90;;;14.90;99.90;;;;;;4996084;28;20113;-80
2021/05/26 10:25:22;;;;;;;2.50;2.00;;;15.00;99.90;;;;;;4996337;28;20176;-78
2021/05/26 10:27:50;;;;;;;2.60;2.00;;;15.00;99.90;;;;;;4998763;28;20162;-79
2021/05/26 10:30:17;;;;;;;1.70;1.60;;;15.20;99.90;;;;;;5008442;28;20124;-78
2021/05/26 10:32:55;;;;;;;2.13;1.98;;;15.40;99.90;;;;;;5018251;28;20191;-78
2021/05/26 10:35:24;;;;;;;2.83;1.45;;;15.50;99.90;;;;;;5017332;28;20049;-79
2021/05/26 10:38:04;;;;;;;3.05;1.92;;;15.50;99.90;;;;;;5017460;28;20050;-80
2021/05/26 10:40:42;;;;;;;1.77;1.67;;;15.60;99.90;;;;;;5020196;28;20049;-79
2021/05/26 10:43:31;;;;;;;4.25;2.20;;;15.60;99.90;;;;;;5019956;28;20121;-80
2021/05/26 10:46:00;;;;;;;4.18;2.13;;;15.80;99.90;;;;;;5020364;28;20054;-79
2021/05/26 10:48:54;;;;;;;3.10;2.15;;;15.90;99.90;;;;;;5018227;28;20053;-79
2021/05/26 10:52:05;;;;;;;4.22;1.98;;;16.20;99.90;;;;;;5019476;28;20109;-80
2021/05/26 10:54:55;;;;;;;2.35;2.00;;;16.10;99.90;;;;;;5018439;28;20050;-78
2021/05/26 10:57:22;;;;;;;2.60;2.40;;;15.90;99.90;;;;;;5019257;28;20089;-79
2021/05/26 11:00:22;;;;;;;3.67;2.15;;;15.90;99.90;;;;;;5018152;28;20118;-80
2021/05/26 11:03:18;;;;;;;2.97;2.22;;;15.90;99.90;;;;;;5018589;28;20058;-78
2021/05/26 11:05:44;;;;;;;3.30;2.25;;;15.80;99.90;;;;;;5014503;28;20542;-80
2021/05/26 11:08:30;;;;;;;2.78;2.33;;;16.00;99.90;;;;;;5017045;28;20085;-78
2021/05/26 11:10:56;;;;;;;4.60;2.40;;;16.10;99.90;;;;;;5016870;28;20053;-78
2021/05/26 11:13:23;;;;;;;2.38;2.15;;;16.00;99.90;;;;;;5021646;28;20049;-82
2021/05/26 11:15:58;;;;;;;2.40;2.20;;;15.90;99.90;;;;;;5022327;28;20104;-80
2021/05/26 11:18:33;;;;;;;4.55;2.33;;;15.90;99.90;;;;;;5019997;28;20064;-79
2021/05/26 11:21:00;;;;;;;2.53;2.17;;;15.90;99.90;;;;;;5019419;28;20434;-80
2021/05/26 11:23:27;;;;;;;3.70;2.80;;;15.90;99.90;;;;;;5018439;28;20141;-80
2021/05/26 11:25:56;;;;;;;3.55;2.67;;;15.80;99.90;;;;;;5019158;28;20177;-80
2021/05/26 11:28:30;;;;;;;8.02;2.90;;;15.70;99.90;;;;;;5017553;28;20569;-80
2021/05/26 11:31:01;;;;;;;3.67;2.78;;;15.80;99.90;;;;;;5018197;28;20076;-79
2021/05/26 11:33:27;;;;;;;3.17;2.40;;;15.80;99.90;;;;;;5017751;28;20430;-80
2021/05/26 11:36:02;;;;;;;5.78;2.90;;;15.90;99.90;;;;;;5015704;28;20067;-77
2021/05/26 11:38:28;;;;;;;3.65;2.60;;;15.80;99.90;;;;;;5014229;28;20481;-79
2021/05/26 11:40:56;;;;;;;3.70;2.60;;;15.70;99.90;;;;;;5016240;28;20108;-75
2021/05/26 11:43:23;;;;;;;4.53;3.50;;;15.60;99.90;;;;;;5016030;28;20053;-82
2021/05/26 11:46:03;;;;;;;5.68;2.80;;;15.50;99.90;;;;;;5016658;28;20063;-79
2021/05/26 11:48:30;;;;;;;4.55;2.45;;;15.30;99.90;;;;;;5014636;28;20058;-78
2021/05/26 11:51:00;;;;;;;10.05;2.58;;;15.20;99.90;;;;;;5014630;28;20054;-79
2021/05/26 11:53:27;;;;;;;3.50;2.42;;;15.10;99.90;;;;;;5016964;28;20053;-79
2021/05/26 11:55:59;;;;;;;5.28;2.60;;;15.00;99.90;;;;;;5017549;28;20081;-80
2021/05/26 11:58:40;;;;;;;3.25;2.55;;;15.00;99.90;;;;;;5020105;28;20042;-82
2021/05/26 12:01:09;;;;;;;3.47;2.45;;;14.90;99.90;;;;;;5018928;28;20049;-82
2021/05/26 12:03:36;;;;;;;4.85;2.50;;;15.10;99.90;;;;;;5018360;28;20113;-80
2021/05/26 12:06:03;;;;;;;3.35;2.80;;;15.30;99.90;;;;;;5016880;28;20136;-82
2021/05/26 12:08:30;;;;;;;3.15;2.60;;;15.30;99.90;;;;;;5017218;28;20053;-81
2021/05/26 12:10:59;;;;;;;3.13;2.60;;;15.60;99.90;;;;;;5016727;28;20050;-80
2021/05/26 12:13:27;;;;;;;3.15;2.60;;;15.90;99.90;;;;;;5013751;28;20073;-81
2021/05/26 12:16:06;;;;;;;3.17;2.33;;;16.10;99.90;;;;;;5019747;28;20049;-80
2021/05/26 12:18:36;;;;;;;3.20;2.70;;;16.30;99.90;;;;;;5017837;28;20060;-80
2021/05/26 12:21:08;;;;;;;4.47;2.60;;;16.50;99.90;;;;;;5017056;28;20128;-80
2021/05/26 12:23:36;;;;;;;3.13;2.70;;;16.40;99.90;;;;;;5016885;28;20061;-80
2021/05/26 12:26:21;;;;;;;3.30;2.97;;;16.50;99.90;;;;;;5015950;28;20465;-79
2021/05/26 12:28:47;;;;;;;4.07;3.30;;;16.70;99.90;;;;;;5015880;28;20038;-83
2021/05/26 12:31:16;;;;;;;3.00;2.70;;;17.00;99.90;;;;;;5018893;28;20145;-84
2021/05/26 12:33:45;;;;;;;4.03;2.72;;;17.00;99.90;;;;;;5017253;28;20117;-81
2021/05/26 12:36:12;;;;;;;3.60;3.00;;;17.10;99.90;;;;;;5017629;28;20473;-79
2021/05/26 12:38:43;;;;;;;3.35;3.00;;;17.00;99.90;;;;;;5017704;28;20050;-80
2021/05/26 12:41:25;;;;;;;5.00;3.40;;;16.80;99.90;;;;;;5018173;28;20077;-82
2021/05/26 12:43:53;;;;;;;4.20;3.40;;;16.70;99.90;;;;;;5019287;28;20510;-82
2021/05/26 12:46:44;;;;;;;5.72;3.50;;;16.70;99.90;;;;;;5018529;28;20084;-82
2021/05/26 12:49:42;;;;;;;4.20;3.08;;;16.70;99.90;;;;;;5017569;28;20129;-81
2021/05/26 12:52:10;;;;;;;3.58;3.00;;;16.70;99.90;;;;;;5018608;28;20057;-81
2021/05/26 12:54:40;;;;;;;4.22;3.20;;;16.40;99.90;;;;;;5018856;28;20076;-82
2021/05/26 12:57:08;;;;;;;5.60;3.47;;;16.40;99.90;;;;;;5017861;28;20262;-81